createdAt,value
2023-03-18T00:01:15.275Z,91.63
2023-03-18T00:04:00.677Z,93.01
2023-03-18T00:06:46.169Z,94.71
2023-03-18T00:09:31.636Z,96.42
2023-03-18T00:12:16.963Z,98.33
2023-03-18T00:15:01.898Z,100.00
2023-03-18T00:17:47.683Z,100.00
2023-03-18T00:20:32.936Z,100.00
2023-03-18T00:23:19.005Z,100.00
2023-03-18T00:26:04.760Z,100.00
2023-03-18T00:28:49.811Z,100.00
2023-03-18T00:31:34.812Z,100.00
2023-03-18T00:34:21.811Z,100.00
2023-03-18T00:37:07.140Z,100.00
2023-03-18T00:39:52.066Z,100.00
2023-03-18T00:42:39.471Z,100.00
2023-03-18T00:45:26.014Z,100.00
2023-03-18T00:48:11.040Z,100.00
2023-03-18T00:50:56.623Z,100.00
2023-03-18T00:53:45.395Z,100.00
2023-03-18T00:56:32.117Z,100.00
2023-03-18T00:59:17.464Z,100.00
2023-03-18T01:02:02.869Z,100.00
2023-03-18T01:04:48.118Z,100.00
2023-03-18T01:07:33.647Z,100.00
2023-03-18T01:10:19.387Z,100.00
2023-03-18T01:13:04.528Z,100.00
2023-03-18T01:15:50.719Z,100.00
2023-03-18T01:18:36.806Z,100.00
2023-03-18T01:21:21.935Z,100.00
2023-03-18T01:24:07.463Z,100.00
2023-03-18T01:26:53.174Z,100.00
2023-03-18T01:29:38.418Z,100.00
2023-03-18T01:32:23.453Z,100.00
2023-03-18T01:35:08.814Z,100.00
2023-03-18T01:37:54.410Z,100.00
2023-03-18T01:40:40.057Z,100.00
2023-03-18T01:43:28.960Z,100.00
2023-03-18T01:46:36.909Z,100.00
2023-03-18T01:49:27.825Z,100.00
2023-03-18T01:52:27.140Z,100.00
2023-03-18T01:55:17.357Z,100.00
2023-03-18T01:58:08.339Z,100.00
2023-03-18T02:01:21.647Z,100.00
2023-03-18T02:04:09.022Z,100.00
2023-03-18T02:06:54.208Z,100.00
2023-03-18T02:09:39.213Z,100.00
2023-03-18T02:12:29.943Z,100.00
2023-03-18T02:15:18.472Z,100.00
2023-03-18T02:18:11.871Z,100.00
2023-03-18T02:21:35.446Z,100.00
2023-03-18T02:24:35.580Z,100.00
2023-03-18T02:27:28.136Z,100.00
2023-03-18T02:30:18.542Z,100.00
2023-03-18T02:33:04.688Z,100.00
2023-03-18T02:35:56.871Z,100.00
2023-03-18T02:38:43.585Z,100.00
2023-03-18T02:41:32.064Z,100.00
2023-03-18T02:44:19.318Z,100.00
2023-03-18T02:47:11.238Z,100.00
2023-03-18T02:49:56.624Z,100.00
2023-03-18T02:52:42.300Z,100.00
2023-03-18T02:55:27.344Z,100.00
2023-03-18T02:58:12.550Z,100.00
2023-03-18T03:00:57.684Z,100.00
2023-03-18T03:03:42.768Z,100.00
2023-03-18T03:06:28.332Z,100.00
2023-03-18T03:09:16.371Z,100.00
2023-03-18T03:12:01.779Z,100.00
2023-03-18T03:14:46.838Z,100.00
2023-03-18T03:17:31.703Z,100.00
2023-03-18T03:20:16.779Z,100.00
2023-03-18T03:23:03.918Z,100.00
2023-03-18T03:25:49.279Z,100.00
2023-03-18T03:28:34.693Z,100.00
2023-03-18T03:31:20.150Z,100.00
2023-03-18T03:34:05.495Z,100.00
2023-03-18T03:36:50.442Z,100.00
2023-03-18T03:39:35.878Z,100.00
2023-03-18T03:42:21.325Z,100.00
2023-03-18T03:45:08.249Z,100.00
2023-03-18T03:47:53.440Z,100.00
2023-03-18T03:50:39.342Z,100.00
2023-03-18T03:53:26.522Z,100.00
2023-03-18T03:56:11.673Z,100.00
2023-03-18T03:58:56.833Z,100.00
2023-03-18T04:01:41.712Z,100.00
2023-03-18T04:04:27.227Z,100.00
2023-03-18T04:07:13.549Z,100.00
2023-03-18T04:09:58.836Z,100.00
2023-03-18T04:12:44.889Z,100.00
2023-03-18T04:15:30.369Z,100.00
2023-03-18T04:18:15.492Z,100.00
2023-03-18T04:21:00.831Z,100.00
2023-03-18T04:23:46.109Z,100.00
2023-03-18T04:26:31.442Z,100.00
2023-03-18T04:29:16.504Z,100.00
2023-03-18T04:32:01.883Z,100.00
2023-03-18T04:34:46.950Z,100.00
2023-03-18T04:37:32.299Z,100.00
2023-03-18T04:40:17.337Z,100.00
2023-03-18T04:43:02.514Z,100.00
2023-03-18T04:45:47.831Z,100.00
2023-03-18T04:48:33.136Z,100.00
2023-03-18T04:51:18.809Z,100.00
2023-03-18T04:54:04.210Z,100.00
2023-03-18T04:56:49.452Z,100.00
2023-03-18T04:59:34.766Z,100.00
2023-03-18T05:02:20.323Z,100.00
2023-03-18T05:05:05.918Z,100.00
2023-03-18T05:07:51.029Z,100.00
2023-03-18T05:10:37.060Z,100.00
2023-03-18T05:13:22.190Z,100.00
2023-03-18T05:16:07.781Z,100.00
2023-03-18T05:18:52.982Z,100.00
2023-03-18T05:21:38.345Z,100.00
2023-03-18T05:24:23.603Z,100.00
2023-03-18T05:27:09.912Z,100.00
2023-03-18T05:29:56.522Z,100.00
2023-03-18T05:32:42.576Z,100.00
2023-03-18T05:35:27.887Z,100.00
2023-03-18T05:38:12.877Z,100.00
2023-03-18T05:40:57.789Z,100.00
2023-03-18T05:43:43.244Z,100.00
2023-03-18T05:46:28.757Z,100.00
2023-03-18T05:49:13.753Z,100.00
2023-03-18T05:51:58.686Z,100.00
2023-03-18T05:54:44.016Z,100.00
2023-03-18T05:57:28.900Z,100.00
2023-03-18T06:00:15.107Z,100.00
2023-03-18T06:03:01.291Z,100.00
2023-03-18T06:05:46.516Z,100.00
2023-03-18T06:08:32.032Z,100.00
2023-03-18T06:11:17.089Z,100.00
2023-03-18T06:14:03.237Z,100.00
2023-03-18T06:16:49.066Z,100.00
2023-03-18T06:19:34.516Z,100.00
2023-03-18T06:22:19.787Z,100.00
2023-03-18T06:25:06.482Z,100.00
2023-03-18T06:27:51.779Z,100.00
2023-03-18T06:30:36.895Z,100.00
2023-03-18T06:33:23.491Z,100.00
2023-03-18T06:36:09.498Z,100.00
2023-03-18T06:38:55.193Z,100.00
2023-03-18T06:41:40.669Z,100.00
2023-03-18T06:44:26.195Z,100.00
2023-03-18T06:47:11.019Z,100.00
2023-03-18T06:49:56.296Z,100.00
2023-03-18T06:52:42.028Z,100.00
2023-03-18T06:55:27.191Z,100.00
2023-03-18T06:58:12.569Z,100.00
2023-03-18T07:00:58.536Z,100.00
2023-03-18T07:03:43.619Z,100.00
2023-03-18T07:06:29.525Z,100.00
2023-03-18T07:09:14.455Z,100.00
2023-03-18T07:12:00.522Z,100.00
2023-03-18T07:14:45.827Z,100.00
2023-03-18T07:17:30.887Z,100.00
2023-03-18T07:20:16.636Z,100.00
2023-03-18T07:23:02.837Z,100.00
2023-03-18T07:25:47.997Z,100.00
2023-03-18T07:28:32.962Z,100.00
2023-03-18T07:31:17.993Z,100.00
2023-03-18T07:34:03.032Z,100.00
2023-03-18T07:36:47.817Z,100.00
2023-03-18T07:39:32.872Z,100.00
2023-03-18T07:42:17.781Z,100.00
2023-03-18T07:45:03.828Z,100.00
2023-03-18T07:47:48.975Z,100.00
2023-03-18T07:50:34.598Z,100.00
2023-03-18T07:53:19.688Z,100.00
2023-03-18T07:56:05.281Z,100.00
2023-03-18T07:58:50.835Z,100.00
2023-03-18T08:01:35.952Z,100.00
2023-03-18T08:04:20.855Z,100.00
2023-03-18T08:07:06.315Z,100.00
2023-03-18T08:09:51.407Z,100.00
2023-03-18T08:12:51.272Z,100.00
2023-03-18T08:15:37.614Z,100.00
2023-03-18T08:18:22.958Z,100.00
2023-03-18T08:21:08.502Z,100.00
2023-03-18T08:23:53.802Z,100.00
2023-03-18T08:26:39.308Z,100.00
2023-03-18T08:29:24.113Z,100.00
2023-03-18T08:32:09.991Z,100.00
2023-03-18T08:34:55.178Z,100.00
2023-03-18T08:37:40.575Z,100.00
2023-03-18T08:40:25.595Z,100.00
2023-03-18T08:43:10.559Z,100.00
2023-03-18T08:45:56.464Z,100.00
2023-03-18T08:48:41.745Z,100.00
2023-03-18T08:51:27.278Z,100.00
2023-03-18T08:54:13.427Z,100.00
2023-03-18T08:56:58.651Z,100.00
2023-03-18T08:59:43.624Z,100.00
2023-03-18T09:02:28.610Z,100.00
2023-03-18T09:05:13.728Z,100.00
2023-03-18T09:07:59.200Z,100.00
2023-03-18T09:10:48.257Z,100.00
2023-03-18T09:13:33.639Z,100.00
2023-03-18T09:16:18.522Z,100.00
2023-03-18T09:19:03.944Z,100.00
2023-03-18T09:21:49.384Z,100.00
2023-03-18T09:24:34.355Z,100.00
2023-03-18T09:27:19.277Z,100.00
2023-03-18T09:30:06.928Z,98.89
2023-03-18T09:32:52.081Z,98.84
2023-03-18T09:35:38.490Z,97.65
2023-03-18T09:38:23.938Z,97.81
2023-03-18T09:41:24.098Z,96.65
2023-03-18T09:44:08.762Z,96.79
2023-03-18T09:47:26.382Z,97.43
2023-03-18T09:50:23.642Z,97.26
2023-03-18T09:53:19.646Z,96.89
2023-03-18T09:56:07.346Z,96.21
2023-03-18T09:59:03.645Z,95.29
2023-03-18T10:01:53.650Z,95.39
2023-03-18T10:04:44.668Z,95.93
2023-03-18T10:07:36.939Z,95.46
2023-03-18T10:10:34.806Z,94.96
2023-03-18T10:13:28.159Z,94.27
2023-03-18T10:16:21.646Z,93.68
2023-03-18T10:19:08.139Z,93.06
2023-03-18T10:22:02.552Z,92.51
2023-03-18T10:25:00.770Z,91.44
2023-03-18T10:28:04.371Z,91.20
2023-03-18T10:31:07.744Z,90.71
2023-03-18T10:34:06.709Z,90.50
2023-03-18T10:37:38.504Z,90.56
2023-03-18T10:40:24.453Z,91.12
2023-03-18T10:43:18.638Z,89.92
2023-03-18T10:46:06.101Z,89.07
2023-03-18T10:49:00.318Z,88.20
2023-03-18T10:51:59.114Z,88.19
2023-03-18T10:54:46.014Z,87.70
2023-03-18T10:57:31.028Z,87.43
2023-03-18T11:00:34.240Z,87.40
2023-03-18T11:03:43.894Z,86.40
2023-03-18T11:06:55.009Z,86.17
2023-03-18T11:09:40.421Z,85.76
2023-03-18T11:12:29.560Z,85.30
2023-03-18T11:15:19.818Z,85.14
2023-03-18T11:18:05.418Z,84.68
2023-03-18T11:20:59.025Z,83.29
2023-03-18T11:23:58.178Z,82.20
2023-03-18T11:27:15.321Z,80.64
2023-03-18T11:30:12.073Z,80.41
2023-03-18T11:33:04.448Z,80.08
2023-03-18T11:35:54.117Z,81.79
2023-03-18T11:38:39.571Z,80.54
2023-03-18T11:41:27.298Z,78.72
2023-03-18T11:44:18.477Z,77.00
2023-03-18T11:47:21.058Z,75.47
2023-03-18T11:50:10.463Z,74.24
2023-03-18T11:53:04.017Z,74.27
2023-03-18T11:56:05.022Z,72.09
2023-03-18T11:59:08.211Z,72.28
2023-03-18T12:01:56.235Z,72.88
2023-03-18T12:04:56.712Z,72.16
2023-03-18T12:07:52.366Z,74.28
2023-03-18T12:10:41.625Z,75.55
2023-03-18T12:13:56.700Z,75.54
2023-03-18T12:17:16.836Z,74.45
2023-03-18T12:20:16.462Z,73.18
2023-03-18T12:23:13.094Z,71.49
2023-03-18T12:26:15.121Z,69.43
2023-03-18T12:29:06.354Z,70.74
2023-03-18T12:32:02.682Z,69.01
2023-03-18T12:34:47.752Z,70.30
2023-03-18T12:38:02.132Z,70.38
2023-03-18T12:40:56.737Z,65.65
2023-03-18T12:43:49.514Z,66.16
2023-03-18T12:46:59.927Z,67.08
2023-03-18T12:50:08.511Z,66.16
2023-03-18T12:53:02.524Z,65.92
2023-03-18T12:55:56.438Z,67.62
2023-03-18T12:58:47.451Z,69.34
2023-03-18T13:02:02.708Z,69.17
2023-03-18T13:04:55.552Z,68.88
2023-03-18T13:07:47.463Z,68.05
2023-03-18T13:10:36.153Z,65.05
2023-03-18T13:13:23.099Z,63.64
2023-03-18T13:16:08.490Z,62.70
2023-03-18T13:18:57.539Z,64.79
2023-03-18T13:21:47.959Z,68.29
2023-03-18T13:24:58.668Z,69.46
2023-03-18T13:27:50.086Z,67.14
2023-03-18T13:31:00.538Z,66.83
2023-03-18T13:33:55.049Z,66.14
2023-03-18T13:36:46.458Z,67.26
2023-03-18T13:39:52.873Z,68.40
2023-03-18T13:42:40.422Z,69.76
2023-03-18T13:45:34.132Z,69.34
2023-03-18T13:48:32.155Z,68.05
2023-03-18T13:51:40.185Z,67.40
2023-03-18T13:54:34.900Z,67.08
2023-03-18T13:57:29.035Z,68.62
2023-03-18T14:00:38.808Z,69.35
2023-03-18T14:03:28.167Z,69.07
2023-03-18T14:06:44.893Z,68.23
2023-03-18T14:09:30.235Z,68.21
2023-03-18T14:12:29.473Z,67.63
2023-03-18T14:15:37.271Z,68.10
2023-03-18T14:18:27.468Z,68.59
2023-03-18T14:21:24.349Z,68.51
2023-03-18T14:24:13.667Z,68.71
2023-03-18T14:26:58.599Z,68.35
2023-03-18T14:29:46.420Z,68.62
2023-03-18T14:32:34.398Z,67.59
2023-03-18T14:35:29.050Z,67.61
2023-03-18T14:38:23.328Z,68.16
2023-03-18T14:41:29.460Z,67.52
2023-03-18T14:44:32.628Z,67.15
2023-03-18T14:47:38.300Z,65.78
2023-03-18T14:50:27.426Z,64.92
2023-03-18T14:53:19.253Z,64.96
2023-03-18T14:56:05.572Z,64.80
2023-03-18T14:58:55.374Z,65.50
2023-03-18T15:01:44.750Z,65.21
2023-03-18T15:04:30.225Z,65.40
2023-03-18T15:07:15.961Z,65.24
2023-03-18T15:10:04.463Z,64.83
2023-03-18T15:13:00.454Z,65.50
2023-03-18T15:15:46.379Z,65.70
2023-03-18T15:18:35.021Z,66.31
2023-03-18T15:21:24.767Z,65.52
2023-03-18T15:24:15.502Z,64.55
2023-03-18T15:27:14.398Z,63.89
2023-03-18T15:30:03.597Z,64.68
2023-03-18T15:32:49.043Z,65.44
2023-03-18T15:35:35.461Z,66.69
2023-03-18T15:38:26.754Z,66.52
2023-03-18T15:41:12.333Z,66.33
2023-03-18T15:43:57.446Z,65.93
2023-03-18T15:46:46.487Z,65.75
2023-03-18T15:49:31.505Z,67.19
2023-03-18T15:52:17.036Z,66.78
2023-03-18T15:55:03.331Z,66.42
2023-03-18T15:57:48.859Z,66.23
2023-03-18T16:00:34.283Z,66.45
2023-03-18T16:03:25.717Z,66.88
2023-03-18T16:06:10.738Z,66.91
2023-03-18T16:08:56.059Z,66.89
2023-03-18T16:11:42.185Z,67.75
2023-03-18T16:14:41.942Z,68.38
2023-03-18T16:17:27.371Z,67.90
2023-03-18T16:20:17.716Z,67.56
2023-03-18T16:23:02.778Z,68.81
2023-03-18T16:25:51.823Z,69.14
2023-03-18T16:28:37.242Z,68.79
2023-03-18T16:31:22.136Z,68.74
2023-03-18T16:34:17.899Z,69.44
2023-03-18T16:37:03.553Z,69.83
2023-03-18T16:39:49.140Z,70.22
2023-03-18T16:42:34.362Z,70.43
2023-03-18T16:45:30.481Z,70.88
2023-03-18T16:48:19.566Z,71.61
2023-03-18T16:51:04.720Z,72.09
2023-03-18T16:53:49.721Z,72.12
2023-03-18T16:56:35.206Z,72.05
2023-03-18T16:59:20.752Z,71.82
2023-03-18T17:02:30.737Z,71.67
2023-03-18T17:05:16.104Z,71.88
2023-03-18T17:08:01.291Z,73.18
2023-03-18T17:10:49.672Z,72.31
2023-03-18T17:13:35.542Z,72.63
2023-03-18T17:16:20.912Z,75.36
2023-03-18T17:19:13.647Z,77.70
2023-03-18T17:21:59.046Z,81.16
2023-03-18T17:24:43.819Z,85.11
2023-03-18T17:27:33.699Z,91.16
2023-03-18T17:30:40.499Z,95.99
2023-03-18T17:33:28.543Z,99.17
2023-03-18T17:36:13.588Z,100.00
2023-03-18T17:38:58.494Z,100.00
2023-03-18T17:41:43.885Z,100.00
2023-03-18T17:44:30.228Z,100.00
2023-03-18T17:47:15.686Z,100.00
2023-03-18T17:50:01.001Z,100.00
2023-03-18T17:52:49.612Z,100.00
2023-03-18T17:55:35.277Z,100.00
2023-03-18T17:58:22.654Z,100.00
2023-03-18T18:01:14.009Z,100.00
2023-03-18T18:03:59.881Z,100.00
2023-03-18T18:06:48.126Z,100.00
2023-03-18T18:09:34.058Z,100.00
2023-03-18T18:12:23.965Z,100.00
2023-03-18T18:15:25.263Z,100.00
2023-03-18T18:18:21.871Z,100.00
2023-03-18T18:21:13.930Z,100.00
2023-03-18T18:23:59.097Z,100.00
2023-03-18T18:26:44.373Z,100.00
2023-03-18T18:29:29.173Z,100.00
2023-03-18T18:32:14.417Z,100.00
2023-03-18T18:35:00.005Z,100.00
2023-03-18T18:37:46.862Z,100.00
2023-03-18T18:40:31.645Z,100.00
2023-03-18T18:43:17.188Z,100.00
2023-03-18T18:46:02.329Z,100.00
2023-03-18T18:48:48.180Z,100.00
2023-03-18T18:51:33.512Z,100.00
2023-03-18T18:54:19.100Z,100.00
2023-03-18T18:57:04.248Z,100.00
2023-03-18T18:59:49.206Z,100.00
2023-03-18T19:02:35.473Z,100.00
2023-03-18T19:05:20.387Z,100.00
2023-03-18T19:08:05.896Z,100.00
2023-03-18T19:10:55.644Z,100.00
2023-03-18T19:13:40.978Z,100.00
2023-03-18T19:16:34.120Z,100.00
2023-03-18T19:19:27.251Z,100.00
2023-03-18T19:22:14.606Z,100.00
2023-03-18T19:24:59.521Z,100.00
2023-03-18T19:27:44.615Z,100.00
2023-03-18T19:30:29.689Z,100.00
2023-03-18T19:33:16.780Z,100.00
2023-03-18T19:36:08.272Z,100.00
2023-03-18T19:38:56.745Z,100.00
2023-03-18T19:41:42.960Z,100.00
2023-03-18T19:44:28.394Z,100.00
2023-03-18T19:47:28.065Z,100.00
2023-03-18T19:50:18.426Z,100.00
2023-03-18T19:53:10.660Z,100.00
2023-03-18T19:55:55.963Z,100.00
2023-03-18T19:58:41.291Z,100.00
2023-03-18T20:01:27.284Z,100.00
2023-03-18T20:04:15.833Z,100.00
2023-03-18T20:07:01.116Z,100.00
2023-03-18T20:09:46.439Z,100.00
2023-03-18T20:12:40.095Z,100.00
2023-03-18T20:15:26.036Z,100.00
2023-03-18T20:18:17.036Z,100.00
2023-03-18T20:21:02.252Z,100.00
2023-03-18T20:23:47.820Z,100.00
2023-03-18T20:26:33.152Z,100.00
2023-03-18T20:29:20.657Z,100.00
2023-03-18T20:32:06.168Z,100.00
2023-03-18T20:34:51.092Z,100.00
2023-03-18T20:37:36.175Z,100.00
2023-03-18T20:40:29.587Z,100.00
2023-03-18T20:43:19.076Z,100.00
2023-03-18T20:46:04.214Z,100.00
2023-03-18T20:48:49.457Z,100.00
2023-03-18T20:51:36.664Z,100.00
2023-03-18T20:54:27.515Z,100.00
2023-03-18T20:57:12.734Z,100.00
2023-03-18T20:59:57.520Z,100.00
2023-03-18T21:02:42.508Z,100.00
2023-03-18T21:05:27.765Z,100.00
2023-03-18T21:08:13.136Z,100.00
2023-03-18T21:11:01.693Z,100.00
2023-03-18T21:13:48.099Z,100.00
2023-03-18T21:16:34.294Z,100.00
2023-03-18T21:19:20.028Z,100.00
2023-03-18T21:22:04.995Z,100.00
2023-03-18T21:24:50.431Z,100.00
2023-03-18T21:27:35.358Z,100.00
2023-03-18T21:30:22.172Z,100.00
2023-03-18T21:33:25.366Z,100.00
2023-03-18T21:36:11.159Z,100.00
2023-03-18T21:38:56.494Z,100.00
2023-03-18T21:41:41.763Z,100.00
2023-03-18T21:44:27.038Z,100.00
2023-03-18T21:47:17.064Z,100.00
2023-03-18T21:50:02.284Z,100.00
2023-03-18T21:52:47.782Z,100.00
2023-03-18T21:55:33.356Z,100.00
2023-03-18T21:58:25.141Z,100.00
2023-03-18T22:01:19.525Z,100.00
2023-03-18T22:04:04.897Z,100.00
2023-03-18T22:06:50.284Z,100.00
2023-03-18T22:09:35.082Z,100.00
2023-03-18T22:12:27.944Z,100.00
2023-03-18T22:15:33.466Z,100.00
2023-03-18T22:18:19.148Z,100.00
2023-03-18T22:21:11.835Z,100.00
2023-03-18T22:23:57.057Z,100.00
2023-03-18T22:26:42.202Z,100.00
2023-03-18T22:29:27.562Z,100.00
2023-03-18T22:32:23.264Z,100.00
2023-03-18T22:35:17.392Z,100.00
2023-03-18T22:38:02.173Z,100.00
2023-03-18T22:40:52.698Z,100.00
2023-03-18T22:43:38.175Z,100.00
2023-03-18T22:46:23.554Z,100.00
2023-03-18T22:49:09.063Z,100.00
2023-03-18T22:51:53.855Z,100.00
2023-03-18T22:54:39.295Z,100.00
2023-03-18T22:57:25.753Z,100.00
2023-03-18T23:00:38.007Z,100.00
2023-03-18T23:03:29.567Z,100.00
2023-03-18T23:06:18.149Z,100.00
2023-03-18T23:09:03.351Z,100.00
2023-03-18T23:11:48.540Z,100.00
2023-03-18T23:14:33.872Z,100.00
2023-03-18T23:17:21.521Z,100.00
2023-03-18T23:20:06.813Z,100.00
2023-03-18T23:22:52.035Z,100.00
2023-03-18T23:25:37.405Z,100.00
2023-03-18T23:28:22.938Z,100.00
2023-03-18T23:31:08.452Z,100.00
2023-03-18T23:33:53.717Z,100.00
2023-03-18T23:36:38.580Z,100.00
2023-03-18T23:39:23.948Z,100.00
2023-03-18T23:42:10.772Z,100.00
2023-03-18T23:44:55.797Z,100.00
2023-03-18T23:47:41.362Z,100.00
2023-03-18T23:50:26.465Z,100.00
2023-03-18T23:53:11.410Z,100.00
2023-03-18T23:55:56.218Z,100.00
2023-03-18T23:58:41.163Z,100.00
